sensor_id;sensor_type;location;lat;lon;timestamp;temperature;humidity
8313;DHT22;4194;43.408;24.626;2023-04-24T00:01:14;10.90;99.90
8313;DHT22;4194;43.408;24.626;2023-04-24T00:03:40;10.60;99.90
8313;DHT22;4194;43.408;24.626;2023-04-24T00:06:06;10.80;99.90
8313;DHT22;4194;43.408;24.626;2023-04-24T00:08:34;10.70;99.90
8313;DHT22;4194;43.408;24.626;2023-04-24T00:11:00;11.50;99.90
8313;DHT22;4194;43.408;24.626;2023-04-24T00:13:25;10.80;99.90
8313;DHT22;4194;43.408;24.626;2023-04-24T00:15:54;11.50;99.90
8313;DHT22;4194;43.408;24.626;2023-04-24T00:18:20;11.00;99.90
8313;DHT22;4194;43.408;24.626;2023-04-24T00:20:45;10.60;99.90
8313;DHT22;4194;43.408;24.626;2023-04-24T00:23:12;10.90;99.90
8313;DHT22;4194;43.408;24.626;2023-04-24T00:25:38;10.80;99.90
8313;DHT22;4194;43.408;24.626;2023-04-24T00:28:04;11.20;99.90
8313;DHT22;4194;43.408;24.626;2023-04-24T00:30:30;10.90;99.90
8313;DHT22;4194;43.408;24.626;2023-04-24T00:32:55;10.50;99.90
8313;DHT22;4194;43.408;24.626;2023-04-24T00:35:21;11.00;99.90
8313;DHT22;4194;43.408;24.626;2023-04-24T00:37:47;11.00;99.90
8313;DHT22;4194;43.408;24.626;2023-04-24T00:40:12;11.10;99.90
8313;DHT22;4194;43.408;24.626;2023-04-24T00:42:40;11.00;99.90
8313;DHT22;4194;43.408;24.626;2023-04-24T00:45:06;11.50;99.90
8313;DHT22;4194;43.408;24.626;2023-04-24T00:47:33;11.50;99.90
8313;DHT22;4194;43.408;24.626;2023-04-24T00:50:04;11.10;99.90
8313;DHT22;4194;43.408;24.626;2023-04-24T00:52:30;10.80;99.90
8313;DHT22;4194;43.408;24.626;2023-04-24T00:54:58;10.80;99.90
8313;DHT22;4194;43.408;24.626;2023-04-24T00:57:24;10.90;99.90
8313;DHT22;4194;43.408;24.626;2023-04-24T00:59:51;10.80;99.90
8313;DHT22;4194;43.408;24.626;2023-04-24T01:02:17;10.60;99.90
8313;DHT22;4194;43.408;24.626;2023-04-24T01:04:43;10.80;99.90
8313;DHT22;4194;43.408;24.626;2023-04-24T01:07:09;10.80;99.90
8313;DHT22;4194;43.408;24.626;2023-04-24T01:09:38;10.80;99.90
8313;DHT22;4194;43.408;24.626;2023-04-24T01:12:05;10.70;99.90
8313;DHT22;4194;43.408;24.626;2023-04-24T01:14:31;10.10;99.90
8313;DHT22;4194;43.408;24.626;2023-04-24T01:16:57;11.00;99.90
8313;DHT22;4194;43.408;24.626;2023-04-24T01:19:23;11.70;99.90
8313;DHT22;4194;43.408;24.626;2023-04-24T01:21:51;11.20;99.90
8313;DHT22;4194;43.408;24.626;2023-04-24T01:24:19;10.80;99.90
8313;DHT22;4194;43.408;24.626;2023-04-24T01:26:45;10.90;99.90
8313;DHT22;4194;43.408;24.626;2023-04-24T01:29:12;10.40;99.90
8313;DHT22;4194;43.408;24.626;2023-04-24T01:31:39;10.80;99.90
8313;DHT22;4194;43.408;24.626;2023-04-24T01:34:05;11.30;99.90
8313;DHT22;4194;43.408;24.626;2023-04-24T01:36:32;11.30;99.90
8313;DHT22;4194;43.408;24.626;2023-04-24T01:38:58;11.20;99.90
8313;DHT22;4194;43.408;24.626;2023-04-24T01:41:25;10.70;99.90
8313;DHT22;4194;43.408;24.626;2023-04-24T01:43:50;10.90;99.90
8313;DHT22;4194;43.408;24.626;2023-04-24T01:46:16;11.40;99.90
8313;DHT22;4194;43.408;24.626;2023-04-24T01:48:42;10.90;99.90
8313;DHT22;4194;43.408;24.626;2023-04-24T01:51:08;10.70;99.90
8313;DHT22;4194;43.408;24.626;2023-04-24T01:53:33;10.60;99.90
8313;DHT22;4194;43.408;24.626;2023-04-24T01:55:59;10.40;99.90
8313;DHT22;4194;43.408;24.626;2023-04-24T01:58:26;10.50;99.90
8313;DHT22;4194;43.408;24.626;2023-04-24T02:00:52;11.30;99.90
8313;DHT22;4194;43.408;24.626;2023-04-24T02:03:18;11.10;99.90
8313;DHT22;4194;43.408;24.626;2023-04-24T02:05:44;10.60;99.90
8313;DHT22;4194;43.408;24.626;2023-04-24T02:08:10;10.50;99.90
8313;DHT22;4194;43.408;24.626;2023-04-24T02:10:36;10.50;99.90
8313;DHT22;4194;43.408;24.626;2023-04-24T02:13:02;10.50;99.90
8313;DHT22;4194;43.408;24.626;2023-04-24T02:15:28;10.80;99.90
8313;DHT22;4194;43.408;24.626;2023-04-24T02:17:53;10.50;99.90
8313;DHT22;4194;43.408;24.626;2023-04-24T02:20:19;11.70;99.90
8313;DHT22;4194;43.408;24.626;2023-04-24T02:22:45;10.80;99.90
8313;DHT22;4194;43.408;24.626;2023-04-24T02:25:10;10.50;99.90
8313;DHT22;4194;43.408;24.626;2023-04-24T02:27:36;10.60;99.90
8313;DHT22;4194;43.408;24.626;2023-04-24T02:30:02;11.30;99.90
8313;DHT22;4194;43.408;24.626;2023-04-24T02:32:28;11.00;99.90
8313;DHT22;4194;43.408;24.626;2023-04-24T02:34:54;11.60;99.90
8313;DHT22;4194;43.408;24.626;2023-04-24T02:37:19;10.70;99.90
8313;DHT22;4194;43.408;24.626;2023-04-24T02:39:45;10.70;99.90
8313;DHT22;4194;43.408;24.626;2023-04-24T02:42:11;10.80;99.90
8313;DHT22;4194;43.408;24.626;2023-04-24T02:44:36;10.90;99.90
8313;DHT22;4194;43.408;24.626;2023-04-24T02:47:02;11.20;99.90
8313;DHT22;4194;43.408;24.626;2023-04-24T02:49:28;10.80;99.90
8313;DHT22;4194;43.408;24.626;2023-04-24T02:51:54;11.00;99.90
8313;DHT22;4194;43.408;24.626;2023-04-24T02:54:20;11.60;99.90
8313;DHT22;4194;43.408;24.626;2023-04-24T02:56:45;11.00;99.90
8313;DHT22;4194;43.408;24.626;2023-04-24T02:59:11;10.90;99.90
8313;DHT22;4194;43.408;24.626;2023-04-24T03:01:37;10.70;99.90
8313;DHT22;4194;43.408;24.626;2023-04-24T03:04:02;10.90;99.90
8313;DHT22;4194;43.408;24.626;2023-04-24T03:06:28;11.30;99.90
8313;DHT22;4194;43.408;24.626;2023-04-24T03:08:56;10.90;99.90
8313;DHT22;4194;43.408;24.626;2023-04-24T03:11:22;11.00;99.90
8313;DHT22;4194;43.408;24.626;2023-04-24T03:13:48;10.80;99.90
8313;DHT22;4194;43.408;24.626;2023-04-24T03:16:13;10.70;99.90
8313;DHT22;4194;43.408;24.626;2023-04-24T03:18:39;11.00;99.90
8313;DHT22;4194;43.408;24.626;2023-04-24T03:21:05;11.30;99.90
8313;DHT22;4194;43.408;24.626;2023-04-24T03:23:30;10.70;99.90
8313;DHT22;4194;43.408;24.626;2023-04-24T03:25:56;10.80;99.90
8313;DHT22;4194;43.408;24.626;2023-04-24T03:30:48;11.00;99.90
8313;DHT22;4194;43.408;24.626;2023-04-24T03:33:14;10.80;99.90
8313;DHT22;4194;43.408;24.626;2023-04-24T03:35:40;10.80;99.90
8313;DHT22;4194;43.408;24.626;2023-04-24T03:38:06;10.60;99.90
8313;DHT22;4194;43.408;24.626;2023-04-24T03:40:32;11.40;99.90
8313;DHT22;4194;43.408;24.626;2023-04-24T03:42:59;10.60;99.90
8313;DHT22;4194;43.408;24.626;2023-04-24T03:45:24;10.70;99.90
8313;DHT22;4194;43.408;24.626;2023-04-24T03:47:50;10.80;99.90
8313;DHT22;4194;43.408;24.626;2023-04-24T03:50:16;11.50;99.90
8313;DHT22;4194;43.408;24.626;2023-04-24T03:52:41;10.50;99.90
8313;DHT22;4194;43.408;24.626;2023-04-24T03:55:07;10.80;99.90
8313;DHT22;4194;43.408;24.626;2023-04-24T03:57:33;10.50;99.90
8313;DHT22;4194;43.408;24.626;2023-04-24T03:59:58;11.60;99.90
8313;DHT22;4194;43.408;24.626;2023-04-24T04:02:25;10.70;99.90
8313;DHT22;4194;43.408;24.626;2023-04-24T04:04:51;10.20;99.90
8313;DHT22;4194;43.408;24.626;2023-04-24T04:07:17;10.60;99.90
8313;DHT22;4194;43.408;24.626;2023-04-24T04:09:42;11.10;99.90
8313;DHT22;4194;43.408;24.626;2023-04-24T04:12:08;10.50;99.90
8313;DHT22;4194;43.408;24.626;2023-04-24T04:14:34;10.90;99.90
8313;DHT22;4194;43.408;24.626;2023-04-24T04:16:59;11.40;99.90
8313;DHT22;4194;43.408;24.626;2023-04-24T04:19:25;11.20;99.90
8313;DHT22;4194;43.408;24.626;2023-04-24T04:21:51;10.80;99.90
8313;DHT22;4194;43.408;24.626;2023-04-24T04:24:19;11.60;99.90
8313;DHT22;4194;43.408;24.626;2023-04-24T04:26:46;11.30;99.90
8313;DHT22;4194;43.408;24.626;2023-04-24T04:29:13;11.70;99.90
8313;DHT22;4194;43.408;24.626;2023-04-24T04:31:39;12.00;99.90
8313;DHT22;4194;43.408;24.626;2023-04-24T04:34:04;12.20;99.90
8313;DHT22;4194;43.408;24.626;2023-04-24T04:36:31;11.80;99.90
8313;DHT22;4194;43.408;24.626;2023-04-24T04:38:56;10.80;99.90
8313;DHT22;4194;43.408;24.626;2023-04-24T04:41:24;12.30;99.90
8313;DHT22;4194;43.408;24.626;2023-04-24T04:43:50;12.00;99.90
8313;DHT22;4194;43.408;24.626;2023-04-24T04:46:16;11.70;99.90
8313;DHT22;4194;43.408;24.626;2023-04-24T04:51:08;12.80;99.90
8313;DHT22;4194;43.408;24.626;2023-04-24T04:53:34;12.40;99.90
8313;DHT22;4194;43.408;24.626;2023-04-24T04:56:00;11.50;99.90
8313;DHT22;4194;43.408;24.626;2023-04-24T04:58:26;12.60;99.90
8313;DHT22;4194;43.408;24.626;2023-04-24T05:00:51;12.10;99.90
8313;DHT22;4194;43.408;24.626;2023-04-24T05:03:17;12.20;99.90
8313;DHT22;4194;43.408;24.626;2023-04-24T05:05:43;12.30;99.90
8313;DHT22;4194;43.408;24.626;2023-04-24T05:08:09;12.30;99.90
8313;DHT22;4194;43.408;24.626;2023-04-24T05:10:35;13.30;99.90
8313;DHT22;4194;43.408;24.626;2023-04-24T05:13:02;13.20;99.90
8313;DHT22;4194;43.408;24.626;2023-04-24T05:15:29;13.30;99.90
8313;DHT22;4194;43.408;24.626;2023-04-24T05:17:55;12.40;99.90
8313;DHT22;4194;43.408;24.626;2023-04-24T05:20:21;12.50;99.90
8313;DHT22;4194;43.408;24.626;2023-04-24T05:22:47;12.70;99.90
8313;DHT22;4194;43.408;24.626;2023-04-24T05:25:12;12.70;99.90
8313;DHT22;4194;43.408;24.626;2023-04-24T05:27:38;13.50;99.90
8313;DHT22;4194;43.408;24.626;2023-04-24T05:30:05;12.80;99.90
8313;DHT22;4194;43.408;24.626;2023-04-24T05:32:31;13.30;99.90
8313;DHT22;4194;43.408;24.626;2023-04-24T05:34:56;13.00;99.90
8313;DHT22;4194;43.408;24.626;2023-04-24T05:37:22;14.60;99.90
8313;DHT22;4194;43.408;24.626;2023-04-24T05:39:47;14.80;99.90
8313;DHT22;4194;43.408;24.626;2023-04-24T05:42:13;13.50;99.90
8313;DHT22;4194;43.408;24.626;2023-04-24T05:44:39;14.60;99.90
8313;DHT22;4194;43.408;24.626;2023-04-24T05:47:05;14.10;99.90
8313;DHT22;4194;43.408;24.626;2023-04-24T05:49:30;14.00;99.90
8313;DHT22;4194;43.408;24.626;2023-04-24T05:51:57;14.00;98.90
8313;DHT22;4194;43.408;24.626;2023-04-24T05:54:22;13.80;97.70
8313;DHT22;4194;43.408;24.626;2023-04-24T05:56:49;14.30;98.40
8313;DHT22;4194;43.408;24.626;2023-04-24T05:59:16;14.50;97.40
8313;DHT22;4194;43.408;24.626;2023-04-24T06:01:41;14.50;97.70
8313;DHT22;4194;43.408;24.626;2023-04-24T06:04:07;14.60;97.60
8313;DHT22;4194;43.408;24.626;2023-04-24T06:06:34;15.90;98.50
8313;DHT22;4194;43.408;24.626;2023-04-24T06:09:00;14.80;98.30
8313;DHT22;4194;43.408;24.626;2023-04-24T06:11:25;14.80;98.20
8313;DHT22;4194;43.408;24.626;2023-04-24T06:13:51;13.90;97.80
8313;DHT22;4194;43.408;24.626;2023-04-24T06:16:17;14.80;98.50
8313;DHT22;4194;43.408;24.626;2023-04-24T06:18:43;15.00;98.90
8313;DHT22;4194;43.408;24.626;2023-04-24T06:21:08;15.00;99.20
8313;DHT22;4194;43.408;24.626;2023-04-24T06:23:34;15.00;99.50
8313;DHT22;4194;43.408;24.626;2023-04-24T06:26:00;15.30;99.10
8313;DHT22;4194;43.408;24.626;2023-04-24T06:28:26;14.60;99.10
8313;DHT22;4194;43.408;24.626;2023-04-24T06:30:51;14.90;97.60
8313;DHT22;4194;43.408;24.626;2023-04-24T06:33:17;15.80;98.20
8313;DHT22;4194;43.408;24.626;2023-04-24T06:35:43;16.10;97.20
8313;DHT22;4194;43.408;24.626;2023-04-24T06:38:09;14.90;96.20
8313;DHT22;4194;43.408;24.626;2023-04-24T06:40:34;17.30;97.40
8313;DHT22;4194;43.408;24.626;2023-04-24T06:43:00;16.00;97.10
8313;DHT22;4194;43.408;24.626;2023-04-24T06:45:28;16.00;97.40
8313;DHT22;4194;43.408;24.626;2023-04-24T06:47:54;16.20;97.80
8313;DHT22;4194;43.408;24.626;2023-04-24T06:52:46;16.00;98.00
8313;DHT22;4194;43.408;24.626;2023-04-24T06:55:12;16.30;97.80
8313;DHT22;4194;43.408;24.626;2023-04-24T06:57:37;18.00;97.40
8313;DHT22;4194;43.408;24.626;2023-04-24T07:00:04;16.20;95.20
8313;DHT22;4194;43.408;24.626;2023-04-24T07:04:57;17.30;94.10
8313;DHT22;4194;43.408;24.626;2023-04-24T07:07:23;18.70;92.10
8313;DHT22;4194;43.408;24.626;2023-04-24T07:09:49;18.00;92.10
8313;DHT22;4194;43.408;24.626;2023-04-24T07:12:16;18.80;89.50
8313;DHT22;4194;43.408;24.626;2023-04-24T07:14:42;18.80;89.70
8313;DHT22;4194;43.408;24.626;2023-04-24T07:17:08;19.40;86.20
8313;DHT22;4194;43.408;24.626;2023-04-24T07:19:34;19.60;83.50
8313;DHT22;4194;43.408;24.626;2023-04-24T07:22:02;19.70;84.70
8313;DHT22;4194;43.408;24.626;2023-04-24T07:24:29;19.80;83.90
8313;DHT22;4194;43.408;24.626;2023-04-24T07:26:55;19.20;82.60
8313;DHT22;4194;43.408;24.626;2023-04-24T07:29:20;19.10;83.30
8313;DHT22;4194;43.408;24.626;2023-04-24T07:31:46;18.90;81.40
8313;DHT22;4194;43.408;24.626;2023-04-24T07:34:12;19.30;82.50
8313;DHT22;4194;43.408;24.626;2023-04-24T07:36:38;19.60;78.00
8313;DHT22;4194;43.408;24.626;2023-04-24T07:39:04;19.60;78.70
8313;DHT22;4194;43.408;24.626;2023-04-24T07:41:31;19.70;76.20
8313;DHT22;4194;43.408;24.626;2023-04-24T07:43:57;20.90;77.30
8313;DHT22;4194;43.408;24.626;2023-04-24T07:46:23;20.70;73.80
8313;DHT22;4194;43.408;24.626;2023-04-24T07:48:50;22.50;73.80
8313;DHT22;4194;43.408;24.626;2023-04-24T07:51:16;22.40;72.80
8313;DHT22;4194;43.408;24.626;2023-04-24T07:53:42;22.20;75.90
8313;DHT22;4194;43.408;24.626;2023-04-24T07:56:08;21.80;78.40
8313;DHT22;4194;43.408;24.626;2023-04-24T07:58:34;21.20;79.00
8313;DHT22;4194;43.408;24.626;2023-04-24T08:01:00;20.50;78.40
8313;DHT22;4194;43.408;24.626;2023-04-24T08:03:26;20.60;79.30
8313;DHT22;4194;43.408;24.626;2023-04-24T08:05:51;19.70;78.10
8313;DHT22;4194;43.408;24.626;2023-04-24T08:08:17;20.50;79.50
8313;DHT22;4194;43.408;24.626;2023-04-24T08:10:43;20.50;75.70
8313;DHT22;4194;43.408;24.626;2023-04-24T08:13:09;21.10;76.80
8313;DHT22;4194;43.408;24.626;2023-04-24T08:15:36;20.60;75.40
8313;DHT22;4194;43.408;24.626;2023-04-24T08:18:02;21.00;75.60
8313;DHT22;4194;43.408;24.626;2023-04-24T08:20:28;20.90;76.40
8313;DHT22;4194;43.408;24.626;2023-04-24T08:22:54;21.50;78.40
8313;DHT22;4194;43.408;24.626;2023-04-24T08:25:20;20.70;78.30
8313;DHT22;4194;43.408;24.626;2023-04-24T08:27:48;20.40;80.60
8313;DHT22;4194;43.408;24.626;2023-04-24T08:30:14;20.70;82.10
8313;DHT22;4194;43.408;24.626;2023-04-24T08:32:40;20.80;82.00
8313;DHT22;4194;43.408;24.626;2023-04-24T08:35:06;21.70;83.30
8313;DHT22;4194;43.408;24.626;2023-04-24T08:37:34;19.20;81.00
8313;DHT22;4194;43.408;24.626;2023-04-24T08:40:01;20.50;82.40
8313;DHT22;4194;43.408;24.626;2023-04-24T08:42:28;21.80;83.00
8313;DHT22;4194;43.408;24.626;2023-04-24T08:44:55;20.70;81.70
8313;DHT22;4194;43.408;24.626;2023-04-24T08:47:21;20.90;80.10
8313;DHT22;4194;43.408;24.626;2023-04-24T08:49:48;20.80;80.80
8313;DHT22;4194;43.408;24.626;2023-04-24T08:52:15;20.70;80.30
8313;DHT22;4194;43.408;24.626;2023-04-24T08:54:42;21.90;81.40
8313;DHT22;4194;43.408;24.626;2023-04-24T08:57:11;20.00;80.00
8313;DHT22;4194;43.408;24.626;2023-04-24T08:59:39;21.90;80.90
8313;DHT22;4194;43.408;24.626;2023-04-24T09:02:06;22.00;79.10
8313;DHT22;4194;43.408;24.626;2023-04-24T09:04:35;21.60;79.40
8313;DHT22;4194;43.408;24.626;2023-04-24T09:07:02;22.40;73.30
8313;DHT22;4194;43.408;24.626;2023-04-24T09:09:30;21.70;73.80
8313;DHT22;4194;43.408;24.626;2023-04-24T09:11:58;22.50;75.30
8313;DHT22;4194;43.408;24.626;2023-04-24T09:14:24;21.80;75.40
8313;DHT22;4194;43.408;24.626;2023-04-24T09:16:50;22.50;76.60
8313;DHT22;4194;43.408;24.626;2023-04-24T09:19:16;22.10;76.80
8313;DHT22;4194;43.408;24.626;2023-04-24T09:21:45;20.80;74.70
8313;DHT22;4194;43.408;24.626;2023-04-24T09:24:19;22.60;77.00
8313;DHT22;4194;43.408;24.626;2023-04-24T09:26:48;22.40;76.40
8313;DHT22;4194;43.408;24.626;2023-04-24T09:29:16;21.40;74.90
8313;DHT22;4194;43.408;24.626;2023-04-24T09:31:42;22.50;76.10
8313;DHT22;4194;43.408;24.626;2023-04-24T09:34:08;22.10;72.90
8313;DHT22;4194;43.408;24.626;2023-04-24T09:36:35;22.30;72.10
8313;DHT22;4194;43.408;24.626;2023-04-24T09:39:04;23.70;73.60
8313;DHT22;4194;43.408;24.626;2023-04-24T09:41:32;22.50;70.80
8313;DHT22;4194;43.408;24.626;2023-04-24T09:44:14;23.00;71.60
8313;DHT22;4194;43.408;24.626;2023-04-24T09:46:41;22.40;69.60
8313;DHT22;4194;43.408;24.626;2023-04-24T09:49:13;22.90;69.80
8313;DHT22;4194;43.408;24.626;2023-04-24T09:51:41;22.90;69.40
8313;DHT22;4194;43.408;24.626;2023-04-24T09:54:20;23.70;70.40
8313;DHT22;4194;43.408;24.626;2023-04-24T09:56:48;23.80;68.10
8313;DHT22;4194;43.408;24.626;2023-04-24T09:59:16;24.20;67.10
8313;DHT22;4194;43.408;24.626;2023-04-24T10:01:42;23.90;64.40
8313;DHT22;4194;43.408;24.626;2023-04-24T10:04:23;23.90;64.90
8313;DHT22;4194;43.408;24.626;2023-04-24T10:06:51;24.30;60.20
8313;DHT22;4194;43.408;24.626;2023-04-24T10:09:25;24.30;61.90
8313;DHT22;4194;43.408;24.626;2023-04-24T10:11:52;24.40;63.00
8313;DHT22;4194;43.408;24.626;2023-04-24T10:14:23;24.60;60.30
8313;DHT22;4194;43.408;24.626;2023-04-24T10:16:50;25.60;58.10
8313;DHT22;4194;43.408;24.626;2023-04-24T10:19:17;24.80;57.80
8313;DHT22;4194;43.408;24.626;2023-04-24T10:21:46;24.90;56.60
8313;DHT22;4194;43.408;24.626;2023-04-24T10:24:16;24.80;56.10
8313;DHT22;4194;43.408;24.626;2023-04-24T10:26:44;24.10;55.40
8313;DHT22;4194;43.408;24.626;2023-04-24T10:29:11;24.40;56.30
8313;DHT22;4194;43.408;24.626;2023-04-24T10:31:38;24.60;57.30
8313;DHT22;4194;43.408;24.626;2023-04-24T10:34:08;24.40;57.70
8313;DHT22;4194;43.408;24.626;2023-04-24T10:36:38;24.80;57.80
8313;DHT22;4194;43.408;24.626;2023-04-24T10:39:09;25.80;58.10
8313;DHT22;4194;43.408;24.626;2023-04-24T10:41:37;24.70;55.70
8313;DHT22;4194;43.408;24.626;2023-04-24T10:44:11;25.60;56.80
8313;DHT22;4194;43.408;24.626;2023-04-24T10:46:38;25.40;57.10
8313;DHT22;4194;43.408;24.626;2023-04-24T10:49:07;25.40;57.90
8313;DHT22;4194;43.408;24.626;2023-04-24T10:51:52;25.60;57.10
8313;DHT22;4194;43.408;24.626;2023-04-24T10:54:34;25.60;57.20
8313;DHT22;4194;43.408;24.626;2023-04-24T10:59:49;26.40;57.60
8313;DHT22;4194;43.408;24.626;2023-04-24T11:02:17;25.30;55.60
8313;DHT22;4194;43.408;24.626;2023-04-24T11:04:43;27.00;57.30
8313;DHT22;4194;43.408;24.626;2023-04-24T11:07:10;26.60;57.60
8313;DHT22;4194;43.408;24.626;2023-04-24T11:09:37;28.40;53.50
8313;DHT22;4194;43.408;24.626;2023-04-24T11:12:10;28.00;53.60
8313;DHT22;4194;43.408;24.626;2023-04-24T11:17:47;28.70;51.70
8313;DHT22;4194;43.408;24.626;2023-04-24T11:20:17;28.00;51.10
8313;DHT22;4194;43.408;24.626;2023-04-24T11:22:43;29.00;50.50
8313;DHT22;4194;43.408;24.626;2023-04-24T11:25:09;29.20;49.80
8313;DHT22;4194;43.408;24.626;2023-04-24T11:27:41;28.80;48.40
8313;DHT22;4194;43.408;24.626;2023-04-24T11:30:08;28.80;49.00
8313;DHT22;4194;43.408;24.626;2023-04-24T11:32:42;29.40;46.50
8313;DHT22;4194;43.408;24.626;2023-04-24T11:35:17;27.80;46.00
8313;DHT22;4194;43.408;24.626;2023-04-24T11:37:48;28.90;46.70
8313;DHT22;4194;43.408;24.626;2023-04-24T11:40:15;29.30;47.40
8313;DHT22;4194;43.408;24.626;2023-04-24T11:42:43;29.50;47.50
8313;DHT22;4194;43.408;24.626;2023-04-24T11:47:49;29.80;45.70
8313;DHT22;4194;43.408;24.626;2023-04-24T11:50:17;30.30;46.10
8313;DHT22;4194;43.408;24.626;2023-04-24T11:52:45;30.40;44.40
8313;DHT22;4194;43.408;24.626;2023-04-24T11:55:31;30.60;45.00
8313;DHT22;4194;43.408;24.626;2023-04-24T11:57:58;31.40;44.50
8313;DHT22;4194;43.408;24.626;2023-04-24T12:00:31;31.50;44.20
8313;DHT22;4194;43.408;24.626;2023-04-24T12:03:10;31.80;43.80
8313;DHT22;4194;43.408;24.626;2023-04-24T12:05:37;31.60;43.10
8313;DHT22;4194;43.408;24.626;2023-04-24T12:08:03;31.40;42.80
8313;DHT22;4194;43.408;24.626;2023-04-24T12:10:32;31.40;43.50
8313;DHT22;4194;43.408;24.626;2023-04-24T12:12:59;30.40;43.90
8313;DHT22;4194;43.408;24.626;2023-04-24T12:15:25;31.30;44.20
8313;DHT22;4194;43.408;24.626;2023-04-24T12:17:52;31.00;43.70
8313;DHT22;4194;43.408;24.626;2023-04-24T12:20:24;31.00;43.00
8313;DHT22;4194;43.408;24.626;2023-04-24T12:22:52;32.00;42.20
8313;DHT22;4194;43.408;24.626;2023-04-24T12:25:26;33.00;42.10
8313;DHT22;4194;43.408;24.626;2023-04-24T12:30:29;30.20;42.90
8313;DHT22;4194;43.408;24.626;2023-04-24T12:32:58;28.50;43.30
8313;DHT22;4194;43.408;24.626;2023-04-24T12:35:27;28.90;44.10
8313;DHT22;4194;43.408;24.626;2023-04-24T12:37:54;28.60;44.30
8313;DHT22;4194;43.408;24.626;2023-04-24T12:40:21;29.00;44.00
8313;DHT22;4194;43.408;24.626;2023-04-24T12:42:50;27.10;43.50
8313;DHT22;4194;43.408;24.626;2023-04-24T12:45:18;27.10;44.70
8313;DHT22;4194;43.408;24.626;2023-04-24T12:47:45;28.10;47.40
8313;DHT22;4194;43.408;24.626;2023-04-24T12:50:13;28.60;47.50
8313;DHT22;4194;43.408;24.626;2023-04-24T12:52:39;27.20;46.10
8313;DHT22;4194;43.408;24.626;2023-04-24T12:55:05;27.00;46.40
8313;DHT22;4194;43.408;24.626;2023-04-24T12:57:34;26.10;46.30
8313;DHT22;4194;43.408;24.626;2023-04-24T13:00:01;27.50;46.90
8313;DHT22;4194;43.408;24.626;2023-04-24T13:02:28;27.10;47.40
8313;DHT22;4194;43.408;24.626;2023-04-24T13:04:55;29.70;43.50
8313;DHT22;4194;43.408;24.626;2023-04-24T13:07:21;32.30;41.90
8313;DHT22;4194;43.408;24.626;2023-04-24T13:09:48;34.30;39.40
8313;DHT22;4194;43.408;24.626;2023-04-24T13:12:14;36.50;36.10
8313;DHT22;4194;43.408;24.626;2023-04-24T13:14:40;36.50;36.50
8313;DHT22;4194;43.408;24.626;2023-04-24T13:17:06;37.60;35.70
8313;DHT22;4194;43.408;24.626;2023-04-24T13:19:41;39.60;32.00
8313;DHT22;4194;43.408;24.626;2023-04-24T13:22:08;39.60;31.00
8313;DHT22;4194;43.408;24.626;2023-04-24T13:24:34;39.10;31.20
8313;DHT22;4194;43.408;24.626;2023-04-24T13:27:00;38.60;33.20
8313;DHT22;4194;43.408;24.626;2023-04-24T13:29:26;39.00;34.10
8313;DHT22;4194;43.408;24.626;2023-04-24T13:31:54;36.00;36.30
8313;DHT22;4194;43.408;24.626;2023-04-24T13:34:21;36.60;37.20
8313;DHT22;4194;43.408;24.626;2023-04-24T13:36:47;36.50;36.20
8313;DHT22;4194;43.408;24.626;2023-04-24T13:39:13;36.50;36.90
8313;DHT22;4194;43.408;24.626;2023-04-24T13:41:39;36.50;37.90
8313;DHT22;4194;43.408;24.626;2023-04-24T13:44:06;35.60;37.00
8313;DHT22;4194;43.408;24.626;2023-04-24T13:46:32;33.30;38.90
8313;DHT22;4194;43.408;24.626;2023-04-24T13:48:58;31.20;40.30
8313;DHT22;4194;43.408;24.626;2023-04-24T13:51:25;31.00;40.60
8313;DHT22;4194;43.408;24.626;2023-04-24T13:53:53;32.10;41.90
8313;DHT22;4194;43.408;24.626;2023-04-24T13:56:18;34.40;39.00
8313;DHT22;4194;43.408;24.626;2023-04-24T13:58:44;36.50;38.70
8313;DHT22;4194;43.408;24.626;2023-04-24T14:01:10;35.90;38.60
8313;DHT22;4194;43.408;24.626;2023-04-24T14:03:37;34.60;38.10
8313;DHT22;4194;43.408;24.626;2023-04-24T14:06:03;34.70;38.00
8313;DHT22;4194;43.408;24.626;2023-04-24T14:08:28;34.50;38.60
8313;DHT22;4194;43.408;24.626;2023-04-24T14:10:54;33.70;39.30
8313;DHT22;4194;43.408;24.626;2023-04-24T14:13:20;33.70;40.10
8313;DHT22;4194;43.408;24.626;2023-04-24T14:15:46;33.00;41.00
8313;DHT22;4194;43.408;24.626;2023-04-24T14:18:12;31.10;42.20
8313;DHT22;4194;43.408;24.626;2023-04-24T14:20:38;31.10;43.30
8313;DHT22;4194;43.408;24.626;2023-04-24T14:23:03;30.30;43.70
8313;DHT22;4194;43.408;24.626;2023-04-24T14:25:30;30.60;44.50
8313;DHT22;4194;43.408;24.626;2023-04-24T14:27:55;28.10;45.40
8313;DHT22;4194;43.408;24.626;2023-04-24T14:30:21;27.50;47.80
8313;DHT22;4194;43.408;24.626;2023-04-24T14:32:47;26.40;49.00
8313;DHT22;4194;43.408;24.626;2023-04-24T14:35:13;25.90;50.00
8313;DHT22;4194;43.408;24.626;2023-04-24T14:37:39;25.50;50.60
8313;DHT22;4194;43.408;24.626;2023-04-24T14:40:07;26.00;51.90
8313;DHT22;4194;43.408;24.626;2023-04-24T14:42:33;26.50;51.60
8313;DHT22;4194;43.408;24.626;2023-04-24T14:44:59;26.80;51.00
8313;DHT22;4194;43.408;24.626;2023-04-24T14:47:25;27.20;50.40
8313;DHT22;4194;43.408;24.626;2023-04-24T14:49:51;27.60;48.60
8313;DHT22;4194;43.408;24.626;2023-04-24T14:52:17;29.20;48.00
8313;DHT22;4194;43.408;24.626;2023-04-24T14:54:43;29.60;46.30
8313;DHT22;4194;43.408;24.626;2023-04-24T14:57:09;30.90;46.60
8313;DHT22;4194;43.408;24.626;2023-04-24T14:59:35;30.10;46.70
8313;DHT22;4194;43.408;24.626;2023-04-24T15:02:01;30.40;45.60
8313;DHT22;4194;43.408;24.626;2023-04-24T15:04:28;28.90;45.40
8313;DHT22;4194;43.408;24.626;2023-04-24T15:06:54;28.60;47.20
8313;DHT22;4194;43.408;24.626;2023-04-24T15:09:21;28.50;47.80
8313;DHT22;4194;43.408;24.626;2023-04-24T15:11:48;26.70;49.00
8313;DHT22;4194;43.408;24.626;2023-04-24T15:14:14;26.60;49.80
8313;DHT22;4194;43.408;24.626;2023-04-24T15:19:06;26.10;50.50
8313;DHT22;4194;43.408;24.626;2023-04-24T15:21:32;26.80;51.80
8313;DHT22;4194;43.408;24.626;2023-04-24T15:23:58;25.90;51.60
8313;DHT22;4194;43.408;24.626;2023-04-24T15:26:24;25.80;51.70
8313;DHT22;4194;43.408;24.626;2023-04-24T15:28:51;26.40;51.20
8313;DHT22;4194;43.408;24.626;2023-04-24T15:34:08;26.00;49.90
8313;DHT22;4194;43.408;24.626;2023-04-24T15:36:34;27.90;50.50
8313;DHT22;4194;43.408;24.626;2023-04-24T15:39:01;29.20;48.90
8313;DHT22;4194;43.408;24.626;2023-04-24T15:41:27;28.50;49.10
8313;DHT22;4194;43.408;24.626;2023-04-24T15:43:53;28.40;47.20
8313;DHT22;4194;43.408;24.626;2023-04-24T15:46:18;28.20;48.10
8313;DHT22;4194;43.408;24.626;2023-04-24T15:48:44;26.70;48.20
8313;DHT22;4194;43.408;24.626;2023-04-24T15:51:10;27.30;49.80
8313;DHT22;4194;43.408;24.626;2023-04-24T15:53:36;26.30;50.60
8313;DHT22;4194;43.408;24.626;2023-04-24T15:56:02;25.40;50.80
8313;DHT22;4194;43.408;24.626;2023-04-24T16:00:54;25.40;52.00
8313;DHT22;4194;43.408;24.626;2023-04-24T16:03:20;23.50;53.30
8313;DHT22;4194;43.408;24.626;2023-04-24T16:05:46;23.90;54.80
8313;DHT22;4194;43.408;24.626;2023-04-24T16:08:11;24.00;55.80
8313;DHT22;4194;43.408;24.626;2023-04-24T16:10:40;23.50;56.60